Time;durP1;ratioP1;P1;durP2;ratioP2;P2;SDS_P1;SDS_P2;PMS_P1;PMS_P2;Temp;Humidity;BMP_temperature;BMP_pressure;BME280_temperature;BME280_humidity;BME280_pressure;Samples;Min_cycle;Max_cycle;Signal;HPM_P1;HPM_P2
2022/09/18 00:02:03;;;;;;;;;;;;;;;;;;5094911;28;20389;-52
2022/09/18 00:04:31;;;;;;;;;;;;;;;;;;5094571;28;19928;-53
2022/09/18 00:06:58;;;;;;;;;;;;;;;;;;5094949;28;19960;-51
2022/09/18 00:09:26;;;;;;;;;;;;;;;;;;5094621;28;19928;-52
2022/09/18 00:11:55;;;;;;;;;;;;;;;;;;5094379;28;20284;-53
2022/09/18 00:14:22;;;;;;;;;;;;;;;;;;5094829;28;19931;-52
2022/09/18 00:16:50;;;;;;;;;;;;;;;;;;5094495;28;20333;-53
2022/09/18 00:19:18;;;;;;;;;;;;;;;;;;5094412;28;19930;-54
2022/09/18 00:21:47;;;;;;;;;;;;;;;;;;5094590;28;19947;-53
2022/09/18 00:24:16;;;;;;;;;;;;;;;;;;5094387;28;19931;-52
2022/09/18 00:26:45;;;;;;;;;;;;;;;;;;5094221;28;20283;-52
2022/09/18 00:29:13;;;;;;;;;;;;;;;;;;5092812;28;20284;-53
2022/09/18 00:31:41;;;;;;;;;;;;;;;;;;5092898;28;20015;-52
2022/09/18 00:34:13;;;;;;;;;;;;;;;;;;5094249;28;20007;-46
2022/09/18 00:36:42;;;;;;;;;;;;;;;;;;5094020;28;19924;-49
2022/09/18 00:39:13;;;;;;;;;;;;;;;;;;5093841;28;19958;-50
2022/09/18 00:41:42;;;;;;;;;;;;;;;;;;5094047;28;19963;-44
2022/09/18 00:44:30;;;;;;;;;;;;;;;;;;5094056;28;20327;-54
2022/09/18 00:47:10;;;;;;;;;;;;;;;;;;5092746;28;20408;-53
2022/09/18 00:49:38;;;;;;;;;;;;;;;;;;5093915;28;19931;-52
2022/09/18 00:52:06;;;;;;;;;;;;;;;;;;5094022;28;20296;-52
2022/09/18 00:54:36;;;;;;;;;;;;;;;;;;5093696;28;20061;-52
2022/09/18 00:57:11;;;;;;;;;;;;;;;;;;5092554;28;19931;-51
2022/09/18 00:59:41;;;;;;;;;;;;;;;;;;5092449;28;20391;-53
2022/09/18 01:02:08;;;;;;;;;;;;;;;;;;5092903;28;20010;-53
2022/09/18 01:04:36;;;;;;;;;;;;;;;;;;5093686;28;20299;-54
2022/09/18 01:07:04;;;;;;;;;;;;;;;;;;5109176;28;19931;-53
2022/09/18 01:09:40;;;;;;;;;;;;;;;;;;5092067;28;20359;-54
2022/09/18 01:12:09;;;;;;;;;;;;;;;;;;5093634;28;19924;-53
2022/09/18 01:14:41;;;;;;;;;;;;;;;;;;5093455;28;20326;-54
2022/09/18 01:17:18;;;;;;;;;;;;;;;;;;5093470;28;19931;-50
2022/09/18 01:19:58;;;;;;;;;;;;;;;;;;5093452;28;20368;-53
2022/09/18 01:22:26;;;;;;;;;;;;;;;;;;5093208;28;19928;-53
2022/09/18 01:25:06;;;;;;;;;;;;;;;;;;5093091;28;19999;-54
2022/09/18 01:27:34;;;;;;;;;;;;;;;;;;5093209;28;20074;-51
2022/09/18 01:30:11;;;;;;;;;;;;;;;;;;5091923;28;20022;-51
2022/09/18 01:32:48;;;;;;;;;;;;;;;;;;5091723;28;19928;-44
2022/09/18 01:35:23;;;;;;;;;;;;;;;;;;5092945;28;19985;-54
2022/09/18 01:38:22;;;;;;;;;;;;;;;;;;5091800;28;19924;-54
2022/09/18 01:40:50;;;;;;;;;;;;;;;;;;5091467;28;19923;-52
2022/09/18 01:43:19;;;;;;;;;;;;;;;;;;5093126;28;19924;-52
2022/09/18 01:45:47;;;;;;;;;;;;;;;;;;5091347;28;19924;-52
2022/09/18 01:48:40;;;;;;;;;;;;;;;;;;5091587;28;20370;-52
2022/09/18 01:51:11;;;;;;;;;;;;;;;;;;5085044;28;20019;-51
2022/09/18 01:53:41;;;;;;;;;;;;;;;;;;5091644;28;19924;-53
2022/09/18 01:56:29;;;;;;;;;;;;;;;;;;5091599;28;19924;-54
2022/09/18 01:58:58;;;;;;;;;;;;;;;;;;5090558;28;19943;-54
2022/09/18 02:01:39;;;;;;;;;;;;;;;;;;5091379;28;20022;-53
2022/09/18 02:04:10;;;;;;;;;;;;;;;;;;5092934;28;19928;-54
2022/09/18 02:06:47;;;;;;;;;;;;;;;;;;5074989;28;19931;-43
2022/09/18 02:09:15;;;;;;;;;;;;;;;;;;5092450;28;19924;-51
2022/09/18 02:11:47;;;;;;;;;;;;;;;;;;5079801;28;19924;-53
2022/09/18 02:14:18;;;;;;;;;;;;;;;;;;5070811;28;19925;-53
2022/09/18 02:17:05;;;;;;;;;;;;;;;;;;5070598;28;20013;-53
2022/09/18 02:19:37;;;;;;;;;;;;;;;;;;5071077;28;20015;-53
2022/09/18 02:22:09;;;;;;;;;;;;;;;;;;5072580;28;19928;-53
2022/09/18 02:24:38;;;;;;;;;;;;;;;;;;5072378;28;19928;-52
2022/09/18 02:27:08;;;;;;;;;;;;;;;;;;5071100;28;19924;-52
2022/09/18 02:29:36;;;;;;;;;;;;;;;;;;5073733;28;19925;-53
2022/09/18 02:32:05;;;;;;;;;;;;;;;;;;5092385;28;20290;-52
2022/09/18 02:34:33;;;;;;;;;;;;;;;;;;5090940;28;20410;-53
2022/09/18 02:37:19;;;;;;;;;;;;;;;;;;5092382;28;19924;-53
2022/09/18 02:40:06;;;;;;;;;;;;;;;;;;5092368;28;19954;-52
2022/09/18 02:42:52;;;;;;;;;;;;;;;;;;5091031;28;20276;-54
2022/09/18 02:45:38;;;;;;;;;;;;;;;;;;5092253;28;19985;-53
2022/09/18 02:48:17;;;;;;;;;;;;;;;;;;5090851;28;19968;-49
2022/09/18 02:50:54;;;;;;;;;;;;;;;;;;5091057;28;19928;-52
2022/09/18 02:53:41;;;;;;;;;;;;;;;;;;5091053;28;19950;-51
2022/09/18 02:56:21;;;;;;;;;;;;;;;;;;5091124;28;19924;-49
2022/09/18 02:58:52;;;;;;;;;;;;;;;;;;5091975;28;19928;-52
2022/09/18 03:01:22;;;;;;;;;;;;;;;;;;5090878;28;19934;-53
2022/09/18 03:03:50;;;;;;;;;;;;;;;;;;5090741;28;19961;-50
2022/09/18 03:06:23;;;;;;;;;;;;;;;;;;5090789;28;19974;-53
2022/09/18 03:08:51;;;;;;;;;;;;;;;;;;5091918;28;19924;-54
2022/09/18 03:11:18;;;;;;;;;;;;;;;;;;5090637;28;19928;-54
2022/09/18 03:13:45;;;;;;;;;;;;;;;;;;5091981;28;19978;-52
2022/09/18 03:16:13;;;;;;;;;;;;;;;;;;5091793;28;19978;-53
2022/09/18 03:18:41;;;;;;;;;;;;;;;;;;5090905;28;19967;-51
2022/09/18 03:21:09;;;;;;;;;;;;;;;;;;5090938;28;19925;-54
2022/09/18 03:23:37;;;;;;;;;;;;;;;;;;5091860;28;20326;-54
2022/09/18 03:26:14;;;;;;;;;;;;;;;;;;5091261;28;19924;-54
2022/09/18 03:28:43;;;;;;;;;;;;;;;;;;5095542;28;19969;-44
2022/09/18 03:31:12;;;;;;;;;;;;;;;;;;5094348;28;20290;-45
2022/09/18 03:33:40;;;;;;;;;;;;;;;;;;5094391;28;19925;-53
2022/09/18 03:36:07;;;;;;;;;;;;;;;;;;5094265;28;20421;-52
2022/09/18 03:38:36;;;;;;;;;;;;;;;;;;5095352;28;19930;-52
2022/09/18 03:41:05;;;;;;;;;;;;;;;;;;5093965;28;20375;-53
2022/09/18 03:43:34;;;;;;;;;;;;;;;;;;5093877;28;19928;-52
2022/09/18 03:46:04;;;;;;;;;;;;;;;;;;5093914;28;19931;-44
2022/09/18 03:48:31;;;;;;;;;;;;;;;;;;5093799;28;20411;-54
2022/09/18 03:50:59;;;;;;;;;;;;;;;;;;5095234;28;19924;-43
2022/09/18 03:53:26;;;;;;;;;;;;;;;;;;5095032;28;19969;-54
2022/09/18 03:56:14;;;;;;;;;;;;;;;;;;5083524;28;20298;-53
2022/09/18 03:59:21;;;;;;;;;;;;;;;;;;5032613;28;19936;-54
2022/09/18 04:02:16;;;;;;;;;;;;;;;;;;5010099;28;19932;-53
2022/09/18 04:05:03;;;;;;;;;;;;;;;;;;5078054;28;19942;-51
2022/09/18 04:07:49;;;;;;;;;;;;;;;;;;5094827;28;19931;-50
2022/09/18 04:10:45;;;;;;;;;;;;;;;;;;5070893;28;19924;-51
2022/09/18 04:13:13;;;;;;;;;;;;;;;;;;5094539;28;20364;-50
2022/09/18 04:15:43;;;;;;;;;;;;;;;;;;5094518;28;19925;-53
2022/09/18 04:18:11;;;;;;;;;;;;;;;;;;5094490;28;20375;-46
2022/09/18 04:20:39;;;;;;;;;;;;;;;;;;5093485;28;19928;-43
2022/09/18 04:23:07;;;;;;;;;;;;;;;;;;5093041;28;19946;-54
2022/09/18 04:25:36;;;;;;;;;;;;;;;;;;5093288;28;19984;-47
2022/09/18 04:28:04;;;;;;;;;;;;;;;;;;5094257;28;19973;-50
2022/09/18 04:30:37;;;;;;;;;;;;;;;;;;5093061;28;20314;-43
2022/09/18 04:33:06;;;;;;;;;;;;;;;;;;5092998;28;20295;-53
2022/09/18 04:35:34;;;;;;;;;;;;;;;;;;5092986;28;19968;-44
2022/09/18 04:38:01;;;;;;;;;;;;;;;;;;5076065;28;19960;-52
2022/09/18 04:40:30;;;;;;;;;;;;;;;;;;5092923;28;19928;-46
2022/09/18 04:42:59;;;;;;;;;;;;;;;;;;5094004;28;19973;-54
2022/09/18 04:45:27;;;;;;;;;;;;;;;;;;5092754;28;20016;-50
2022/09/18 04:47:56;;;;;;;;;;;;;;;;;;5092836;28;19924;-53
2022/09/18 04:50:25;;;;;;;;;;;;;;;;;;5092551;28;19939;-51
2022/09/18 04:53:08;;;;;;;;;;;;;;;;;;5092536;28;19924;-51
2022/09/18 04:55:35;;;;;;;;;;;;;;;;;;5093808;28;19924;-43
2022/09/18 04:58:02;;;;;;;;;;;;;;;;;;5093789;28;19943;-51
2022/09/18 05:00:32;;;;;;;;;;;;;;;;;;5092424;28;19928;-42
2022/09/18 05:02:59;;;;;;;;;;;;;;;;;;5092351;28;19924;-52
2022/09/18 05:05:29;;;;;;;;;;;;;;;;;;5092388;28;19924;-50
2022/09/18 05:07:58;;;;;;;;;;;;;;;;;;5075649;28;19986;-54
2022/09/18 05:10:26;;;;;;;;;;;;;;;;;;5091959;28;19963;-51
2022/09/18 05:12:54;;;;;;;;;;;;;;;;;;5093649;28;20260;-50
2022/09/18 05:15:21;;;;;;;;;;;;;;;;;;5092132;28;19924;-48
2022/09/18 05:17:58;;;;;;;;;;;;;;;;;;5092283;28;19946;-50
2022/09/18 05:20:25;;;;;;;;;;;;;;;;;;5093277;28;20360;-44
2022/09/18 05:22:56;;;;;;;;;;;;;;;;;;5092106;28;20015;-53
2022/09/18 05:25:28;;;;;;;;;;;;;;;;;;5093356;28;19931;-44
2022/09/18 05:27:58;;;;;;;;;;;;;;;;;;5091727;28;19924;-51
2022/09/18 05:30:32;;;;;;;;;;;;;;;;;;5093253;28;21026;-52
2022/09/18 05:33:03;;;;;;;;;;;;;;;;;;5092941;28;19930;-47
2022/09/18 05:35:32;;;;;;;;;;;;;;;;;;5091840;28;20410;-48
2022/09/18 05:37:59;;;;;;;;;;;;;;;;;;5091704;28;19950;-53
2022/09/18 05:40:39;;;;;;;;;;;;;;;;;;5091697;28;19924;-54
2022/09/18 05:43:23;;;;;;;;;;;;;;;;;;5093062;28;19931;-54
2022/09/18 05:46:13;;;;;;;;;;;;;;;;;;5092636;28;19928;-44
2022/09/18 05:49:00;;;;;;;;;;;;;;;;;;5092255;28;20275;-51
2022/09/18 05:51:41;;;;;;;;;;;;;;;;;;5092597;28;19931;-45
2022/09/18 05:54:10;;;;;;;;;;;;;;;;;;5091743;28;19956;-52
2022/09/18 05:56:41;;;;;;;;;;;;;;;;;;5091847;28;19973;-45
2022/09/18 05:59:10;;;;;;;;;;;;;;;;;;5091429;28;19931;-52
2022/09/18 06:01:37;;;;;;;;;;;;;;;;;;5092690;28;19970;-52
2022/09/18 06:04:18;;;;;;;;;;;;;;;;;;5091124;28;19997;-51
2022/09/18 06:06:57;;;;;;;;;;;;;;;;;;5091264;28;19973;-45
2022/09/18 06:09:25;;;;;;;;;;;;;;;;;;5091190;28;19955;-53
2022/09/18 06:11:52;;;;;;;;;;;;;;;;;;5092603;28;20303;-43
2022/09/18 06:14:21;;;;;;;;;;;;;;;;;;5091086;28;19928;-50
2022/09/18 06:16:48;;;;;;;;;;;;;;;;;;5092380;28;19925;-44
2022/09/18 06:19:16;;;;;;;;;;;;;;;;;;5091029;28;19967;-52
2022/09/18 06:21:46;;;;;;;;;;;;;;;;;;5091027;28;20295;-51
2022/09/18 06:24:16;;;;;;;;;;;;;;;;;;5090823;28;20011;-54
2022/09/18 06:26:51;;;;;;;;;;;;;;;;;;5090865;28;20280;-45
2022/09/18 06:29:23;;;;;;;;;;;;;;;;;;5091070;28;19954;-52
2022/09/18 06:32:01;;;;;;;;;;;;;;;;;;5072237;28;20330;-49
2022/09/18 06:34:31;;;;;;;;;;;;;;;;;;5070944;28;19951;-43
2022/09/18 06:37:08;;;;;;;;;;;;;;;;;;5070558;28;19925;-44
2022/09/18 06:39:41;;;;;;;;;;;;;;;;;;5072219;28;19924;-47
2022/09/18 06:42:15;;;;;;;;;;;;;;;;;;5072067;28;20287;-44
2022/09/18 06:45:06;;;;;;;;;;;;;;;;;;5066223;28;20353;-45
2022/09/18 06:47:33;;;;;;;;;;;;;;;;;;5087645;28;19933;-54
2022/09/18 06:50:01;;;;;;;;;;;;;;;;;;5070742;28;19924;-50
2022/09/18 06:52:30;;;;;;;;;;;;;;;;;;5070593;28;19982;-51
2022/09/18 06:55:00;;;;;;;;;;;;;;;;;;5070710;28;19929;-54
2022/09/18 06:57:31;;;;;;;;;;;;;;;;;;5087506;28;20015;-54
2022/09/18 06:59:58;;;;;;;;;;;;;;;;;;5088463;28;20443;-50
2022/09/18 07:02:32;;;;;;;;;;;;;;;;;;5074230;28;19929;-52
2022/09/18 07:05:22;;;;;;;;;;;;;;;;;;5077745;28;20303;-51
2022/09/18 07:07:50;;;;;;;;;;;;;;;;;;5074467;28;19963;-53
2022/09/18 07:10:18;;;;;;;;;;;;;;;;;;5074302;28;19924;-54
2022/09/18 07:12:48;;;;;;;;;;;;;;;;;;5074372;28;20376;-51
2022/09/18 07:15:18;;;;;;;;;;;;;;;;;;5075421;28;19968;-53
2022/09/18 07:17:46;;;;;;;;;;;;;;;;;;5074478;28;20298;-53
2022/09/18 07:20:15;;;;;;;;;;;;;;;;;;5090948;28;20409;-50
2022/09/18 07:22:50;;;;;;;;;;;;;;;;;;5074291;28;19951;-43
2022/09/18 07:25:18;;;;;;;;;;;;;;;;;;5073896;28;19970;-51
2022/09/18 07:27:46;;;;;;;;;;;;;;;;;;5091031;28;19996;-54
2022/09/18 07:30:16;;;;;;;;;;;;;;;;;;5093847;28;20383;-52
2022/09/18 07:32:43;;;;;;;;;;;;;;;;;;5093993;28;19982;-47
2022/09/18 07:35:14;;;;;;;;;;;;;;;;;;5094125;28;19970;-52
2022/09/18 07:37:41;;;;;;;;;;;;;;;;;;5095647;28;19924;-51
2022/09/18 07:40:14;;;;;;;;;;;;;;;;;;5095471;28;19938;-52
2022/09/18 07:42:47;;;;;;;;;;;;;;;;;;5095191;28;19931;-53
2022/09/18 07:45:15;;;;;;;;;;;;;;;;;;5093934;28;19967;-52
2022/09/18 07:47:42;;;;;;;;;;;;;;;;;;5094037;28;19935;-53
2022/09/18 07:50:14;;;;;;;;;;;;;;;;;;5077082;28;19959;-53
2022/09/18 07:52:49;;;;;;;;;;;;;;;;;;5093741;28;19924;-52
2022/09/18 07:55:20;;;;;;;;;;;;;;;;;;5094981;28;20341;-51
2022/09/18 07:57:56;;;;;;;;;;;;;;;;;;5093733;28;19931;-54
2022/09/18 08:00:34;;;;;;;;;;;;;;;;;;5093520;28;19955;-48
2022/09/18 08:03:04;;;;;;;;;;;;;;;;;;5093484;28;19928;-52
2022/09/18 08:05:51;;;;;;;;;;;;;;;;;;5094994;28;19947;-51
2022/09/18 08:08:18;;;;;;;;;;;;;;;;;;5093257;28;19977;-52
2022/09/18 08:11:21;;;;;;;;;;;;;;;;;;5012036;28;20352;-52
2022/09/18 08:14:15;;;;;;;;;;;;;;;;;;5077200;28;19925;-50
2022/09/18 08:17:20;;;;;;;;;;;;;;;;;;5083151;28;19924;-52
2022/09/18 08:20:08;;;;;;;;;;;;;;;;;;5094133;28;19924;-51
2022/09/18 08:22:43;;;;;;;;;;;;;;;;;;5093267;28;19928;-44
2022/09/18 08:25:12;;;;;;;;;;;;;;;;;;5093281;28;20348;-53
2022/09/18 08:27:42;;;;;;;;;;;;;;;;;;5093469;28;19950;-53
2022/09/18 08:30:12;;;;;;;;;;;;;;;;;;5093014;28;19928;-53
2022/09/18 08:32:40;;;;;;;;;;;;;;;;;;5093022;28;19924;-44
2022/09/18 08:35:09;;;;;;;;;;;;;;;;;;5092895;28;19928;-52
2022/09/18 08:37:37;;;;;;;;;;;;;;;;;;5093924;28;20433;-54
2022/09/18 08:40:51;;;;;;;;;;;;;;;;;;5092856;28;19928;-53
2022/09/18 08:43:37;;;;;;;;;;;;;;;;;;5093960;28;20403;-53
2022/09/18 08:46:10;;;;;;;;;;;;;;;;;;5092384;28;19924;-48
2022/09/18 08:48:49;;;;;;;;;;;;;;;;;;5092530;28;20418;-52
2022/09/18 08:51:20;;;;;;;;;;;;;;;;;;5094049;28;20026;-54
2022/09/18 08:53:49;;;;;;;;;;;;;;;;;;5093952;28;19924;-52
2022/09/18 08:56:46;;;;;;;;;;;;;;;;;;5084630;28;20002;-51
2022/09/18 08:59:38;;;;;;;;;;;;;;;;;;5093769;28;19924;-52
2022/09/18 09:02:13;;;;;;;;;;;;;;;;;;5093584;28;19928;-52
2022/09/18 09:04:42;;;;;;;;;;;;;;;;;;5092579;28;19955;-51
2022/09/18 09:07:16;;;;;;;;;;;;;;;;;;5076033;28;19924;-53
2022/09/18 09:09:53;;;;;;;;;;;;;;;;;;5092209;28;19947;-53
2022/09/18 09:12:24;;;;;;;;;;;;;;;;;;5092043;28;19928;-48
2022/09/18 09:15:03;;;;;;;;;;;;;;;;;;5092342;28;20011;-52
2022/09/18 09:17:53;;;;;;;;;;;;;;;;;;5075727;28;19924;-52
2022/09/18 09:20:23;;;;;;;;;;;;;;;;;;5091907;28;19931;-53
2022/09/18 09:23:01;;;;;;;;;;;;;;;;;;5091554;28;19924;-53
2022/09/18 09:25:40;;;;;;;;;;;;;;;;;;5091860;28;20294;-50
2022/09/18 09:28:30;;;;;;;;;;;;;;;;;;5092995;28;19931;-55
2022/09/18 09:31:13;;;;;;;;;;;;;;;;;;5091978;28;19978;-55
2022/09/18 09:34:13;;;;;;;;;;;;;;;;;;5093331;28;19924;-50
2022/09/18 09:36:52;;;;;;;;;;;;;;;;;;5063381;28;19924;-50
2022/09/18 09:39:25;;;;;;;;;;;;;;;;;;5091406;28;19928;-54
2022/09/18 09:41:57;;;;;;;;;;;;;;;;;;5091729;28;19924;-54
2022/09/18 09:44:35;;;;;;;;;;;;;;;;;;5091296;28;19931;-52
2022/09/18 09:47:10;;;;;;;;;;;;;;;;;;5091452;28;20359;-50
2022/09/18 09:49:38;;;;;;;;;;;;;;;;;;5091646;28;19967;-53
2022/09/18 09:52:17;;;;;;;;;;;;;;;;;;5091412;28;19935;-44
2022/09/18 09:54:45;;;;;;;;;;;;;;;;;;5092630;28;20371;-52
2022/09/18 09:57:14;;;;;;;;;;;;;;;;;;5091516;28;19924;-51
2022/09/18 10:00:01;;;;;;;;;;;;;;;;;;5091323;28;19928;-54
2022/09/18 10:03:05;;;;;;;;;;;;;;;;;;5091450;28;19924;-47
2022/09/18 10:05:44;;;;;;;;;;;;;;;;;;5091327;28;19924;-57
2022/09/18 10:08:22;;;;;;;;;;;;;;;;;;5090886;28;20018;-52
2022/09/18 10:10:56;;;;;;;;;;;;;;;;;;5092428;28;19931;-44
2022/09/18 10:13:28;;;;;;;;;;;;;;;;;;5092302;28;19985;-53
2022/09/18 10:16:03;;;;;;;;;;;;;;;;;;5091140;28;19937;-44
2022/09/18 10:18:34;;;;;;;;;;;;;;;;;;5092452;28;20272;-57
2022/09/18 10:21:09;;;;;;;;;;;;;;;;;;5089107;28;19973;-55
2022/09/18 10:23:39;;;;;;;;;;;;;;;;;;5089197;28;19928;-55
2022/09/18 10:26:14;;;;;;;;;;;;;;;;;;5089194;28;20390;-56
2022/09/18 10:28:42;;;;;;;;;;;;;;;;;;5090527;28;19924;-56
2022/09/18 10:31:11;;;;;;;;;;;;;;;;;;5089077;28;19931;-56
2022/09/18 10:33:46;;;;;;;;;;;;;;;;;;5090448;28;20339;-54
2022/09/18 10:36:28;;;;;;;;;;;;;;;;;;5092420;28;20010;-56
2022/09/18 10:38:58;;;;;;;;;;;;;;;;;;5093886;28;19924;-56
2022/09/18 10:41:34;;;;;;;;;;;;;;;;;;5094439;28;20014;-56
2022/09/18 10:44:13;;;;;;;;;;;;;;;;;;5094975;28;19924;-57
2022/09/18 10:46:54;;;;;;;;;;;;;;;;;;5095119;28;19974;-52
2022/09/18 10:49:24;;;;;;;;;;;;;;;;;;5094874;28;19928;-52
2022/09/18 10:52:11;;;;;;;;;;;;;;;;;;5096160;28;19931;-50
2022/09/18 10:54:38;;;;;;;;;;;;;;;;;;5096130;28;19931;-54
2022/09/18 10:57:24;;;;;;;;;;;;;;;;;;5094789;28;19924;-48
2022/09/18 10:59:52;;;;;;;;;;;;;;;;;;5094738;28;19924;-57
2022/09/18 11:02:21;;;;;;;;;;;;;;;;;;5094379;28;19924;-50
2022/09/18 11:04:48;;;;;;;;;;;;;;;;;;5095863;28;20287;-56
2022/09/18 11:07:20;;;;;;;;;;;;;;;;;;5094383;28;19950;-56
2022/09/18 11:09:51;;;;;;;;;;;;;;;;;;5094473;28;19928;-57
2022/09/18 11:12:21;;;;;;;;;;;;;;;;;;5094211;28;19931;-53
2022/09/18 11:15:15;;;;;;;;;;;;;;;;;;5094236;28;19927;-55
2022/09/18 11:17:48;;;;;;;;;;;;;;;;;;5092835;28;19925;-55
2022/09/18 11:20:20;;;;;;;;;;;;;;;;;;5094017;28;19982;-55
2022/09/18 11:23:15;;;;;;;;;;;;;;;;;;5094264;28;19928;-46
2022/09/18 11:25:44;;;;;;;;;;;;;;;;;;5094460;28;19977;-55
2022/09/18 11:28:19;;;;;;;;;;;;;;;;;;5094180;28;20434;-53
2022/09/18 11:31:07;;;;;;;;;;;;;;;;;;5093877;28;20359;-49
2022/09/18 11:33:42;;;;;;;;;;;;;;;;;;5087536;28;19924;-52
2022/09/18 11:36:11;;;;;;;;;;;;;;;;;;5094044;28;19924;-50
2022/09/18 11:38:41;;;;;;;;;;;;;;;;;;5093653;28;19924;-48
2022/09/18 11:41:12;;;;;;;;;;;;;;;;;;5094007;28;20424;-51
2022/09/18 11:43:54;;;;;;;;;;;;;;;;;;5095229;28;20284;-47
2022/09/18 11:46:46;;;;;;;;;;;;;;;;;;5092523;28;19932;-44
2022/09/18 11:49:22;;;;;;;;;;;;;;;;;;5093774;28;19940;-47
2022/09/18 11:51:57;;;;;;;;;;;;;;;;;;5095200;28;19931;-43
2022/09/18 11:54:39;;;;;;;;;;;;;;;;;;5093246;28;20015;-44
2022/09/18 11:57:15;;;;;;;;;;;;;;;;;;5082503;28;19928;-42
2022/09/18 11:59:56;;;;;;;;;;;;;;;;;;5073352;28;19932;-42
2022/09/18 12:02:33;;;;;;;;;;;;;;;;;;5073090;28;19925;-43
2022/09/18 12:05:25;;;;;;;;;;;;;;;;;;5074301;28;20384;-42
2022/09/18 12:08:12;;;;;;;;;;;;;;;;;;5073264;28;19924;-44
2022/09/18 12:10:47;;;;;;;;;;;;;;;;;;5073108;28;20388;-41
2022/09/18 12:13:16;;;;;;;;;;;;;;;;;;5073234;28;20330;-43
2022/09/18 12:15:54;;;;;;;;;;;;;;;;;;5072930;28;19932;-44
2022/09/18 12:18:26;;;;;;;;;;;;;;;;;;5072808;28;19928;-43
2022/09/18 12:20:58;;;;;;;;;;;;;;;;;;5072135;28;19924;-46
2022/09/18 12:23:27;;;;;;;;;;;;;;;;;;5073737;28;19928;-44
2022/09/18 12:26:04;;;;;;;;;;;;;;;;;;5072675;28;20027;-43
2022/09/18 12:28:54;;;;;;;;;;;;;;;;;;5073255;28;19942;-42
2022/09/18 12:31:45;;;;;;;;;;;;;;;;;;5089884;28;19924;-41
2022/09/18 12:34:30;;;;;;;;;;;;;;;;;;5090666;28;19932;-44
2022/09/18 12:37:12;;;;;;;;;;;;;;;;;;5093795;28;19931;-43
2022/09/18 12:39:58;;;;;;;;;;;;;;;;;;5093919;28;19934;-43
2022/09/18 12:42:40;;;;;;;;;;;;;;;;;;5093821;28;20295;-47
2022/09/18 12:45:20;;;;;;;;;;;;;;;;;;5093761;28;20384;-43
2022/09/18 12:48:11;;;;;;;;;;;;;;;;;;5093838;28;19957;-45
2022/09/18 12:50:38;;;;;;;;;;;;;;;;;;5093790;28;19977;-48
2022/09/18 12:53:13;;;;;;;;;;;;;;;;;;5093638;28;20295;-43
2022/09/18 12:55:59;;;;;;;;;;;;;;;;;;5093416;28;19924;-43
2022/09/18 12:58:55;;;;;;;;;;;;;;;;;;5093227;28;19924;-43
2022/09/18 13:01:23;;;;;;;;;;;;;;;;;;5093427;28;20018;-50
2022/09/18 13:03:52;;;;;;;;;;;;;;;;;;5078850;28;20292;-42
2022/09/18 13:06:22;;;;;;;;;;;;;;;;;;5073465;28;19928;-44
2022/09/18 13:08:52;;;;;;;;;;;;;;;;;;5073530;28;20292;-46
2022/09/18 13:11:37;;;;;;;;;;;;;;;;;;5073288;28;20422;-50
2022/09/18 13:14:09;;;;;;;;;;;;;;;;;;5073298;28;19924;-42
2022/09/18 13:16:40;;;;;;;;;;;;;;;;;;5073141;28;19924;-43
2022/09/18 13:19:14;;;;;;;;;;;;;;;;;;5073260;28;19925;-46
2022/09/18 13:21:43;;;;;;;;;;;;;;;;;;5071788;28;19935;-46
2022/09/18 13:24:14;;;;;;;;;;;;;;;;;;5072070;28;19924;-43
2022/09/18 13:26:44;;;;;;;;;;;;;;;;;;5073040;28;20447;-44
2022/09/18 13:29:32;;;;;;;;;;;;;;;;;;5072740;28;19924;-43
2022/09/18 13:31:59;;;;;;;;;;;;;;;;;;5072801;28;20384;-42
2022/09/18 13:34:27;;;;;;;;;;;;;;;;;;5072776;28;19932;-44
2022/09/18 13:37:03;;;;;;;;;;;;;;;;;;5072898;28;20414;-43
2022/09/18 13:39:31;;;;;;;;;;;;;;;;;;5072821;28;19932;-42
2022/09/18 13:42:26;;;;;;;;;;;;;;;;;;5072466;28;19955;-49
2022/09/18 13:44:57;;;;;;;;;;;;;;;;;;5072731;28;19925;-44
2022/09/18 13:47:24;;;;;;;;;;;;;;;;;;5072513;28;20010;-43
2022/09/18 13:49:53;;;;;;;;;;;;;;;;;;5072868;28;19930;-43
2022/09/18 13:52:30;;;;;;;;;;;;;;;;;;5072849;28;19924;-43
2022/09/18 13:55:02;;;;;;;;;;;;;;;;;;5088228;28;19925;-43
2022/09/18 13:57:30;;;;;;;;;;;;;;;;;;5072637;28;19970;-44
2022/09/18 14:00:00;;;;;;;;;;;;;;;;;;5072237;28;19924;-43
2022/09/18 14:02:38;;;;;;;;;;;;;;;;;;5072437;28;19931;-44
2022/09/18 14:05:25;;;;;;;;;;;;;;;;;;5072189;28;19928;-43
2022/09/18 14:07:54;;;;;;;;;;;;;;;;;;5072495;28;19924;-41
2022/09/18 14:10:26;;;;;;;;;;;;;;;;;;5071996;28;19925;-42
2022/09/18 14:13:12;;;;;;;;;;;;;;;;;;5072473;28;20019;-47
2022/09/18 14:15:49;;;;;;;;;;;;;;;;;;5072164;28;19925;-42
2022/09/18 14:18:21;;;;;;;;;;;;;;;;;;5072142;28;20288;-42
2022/09/18 14:20:51;;;;;;;;;;;;;;;;;;5072227;28;20018;-42
2022/09/18 14:23:35;;;;;;;;;;;;;;;;;;5072265;28;20299;-43
2022/09/18 14:26:21;;;;;;;;;;;;;;;;;;5071796;28;19924;-43
2022/09/18 14:28:49;;;;;;;;;;;;;;;;;;5072114;28;19925;-45
2022/09/18 14:31:23;;;;;;;;;;;;;;;;;;5087867;28;19924;-43
2022/09/18 14:33:50;;;;;;;;;;;;;;;;;;5092247;28;20379;-47
2022/09/18 14:36:18;;;;;;;;;;;;;;;;;;5092042;28;19996;-42
2022/09/18 14:38:45;;;;;;;;;;;;;;;;;;5092275;28;20773;-49
2022/09/18 14:41:17;;;;;;;;;;;;;;;;;;5092275;28;20338;-44
2022/09/18 14:43:58;;;;;;;;;;;;;;;;;;5092212;28;19970;-47
2022/09/18 14:46:27;;;;;;;;;;;;;;;;;;5092227;28;20276;-42
2022/09/18 14:48:54;;;;;;;;;;;;;;;;;;5092249;28;20429;-43
2022/09/18 14:51:26;;;;;;;;;;;;;;;;;;5083784;28;20023;-42
2022/09/18 14:53:55;;;;;;;;;;;;;;;;;;5071970;28;19985;-45
2022/09/18 14:56:29;;;;;;;;;;;;;;;;;;5071991;28;20722;-43
2022/09/18 14:58:58;;;;;;;;;;;;;;;;;;5071599;28;19975;-42
2022/09/18 15:01:27;;;;;;;;;;;;;;;;;;5071944;28;19928;-49
2022/09/18 15:03:56;;;;;;;;;;;;;;;;;;5071956;28;19934;-47
2022/09/18 15:06:42;;;;;;;;;;;;;;;;;;5071327;28;19935;-51
2022/09/18 15:09:12;;;;;;;;;;;;;;;;;;5070899;28;19928;-52
2022/09/18 15:11:41;;;;;;;;;;;;;;;;;;5071527;28;19930;-47
2022/09/18 15:14:31;;;;;;;;;;;;;;;;;;5089636;28;19928;-43
2022/09/18 15:17:04;;;;;;;;;;;;;;;;;;5091691;28;19951;-48
2022/09/18 15:19:32;;;;;;;;;;;;;;;;;;5092391;28;19924;-42
2022/09/18 15:22:00;;;;;;;;;;;;;;;;;;5092342;28;20003;-43
2022/09/18 15:24:29;;;;;;;;;;;;;;;;;;5094976;28;20345;-48
2022/09/18 15:26:58;;;;;;;;;;;;;;;;;;5093837;28;19924;-47
2022/09/18 15:29:29;;;;;;;;;;;;;;;;;;5093683;28;19928;-42
2022/09/18 15:31:57;;;;;;;;;;;;;;;;;;5093744;28;19924;-42
2022/09/18 15:34:29;;;;;;;;;;;;;;;;;;5093441;28;19924;-43
2022/09/18 15:36:59;;;;;;;;;;;;;;;;;;5093030;28;19928;-45
2022/09/18 15:39:51;;;;;;;;;;;;;;;;;;5093332;28;19924;-45
2022/09/18 15:42:31;;;;;;;;;;;;;;;;;;5092903;28;20248;-46
2022/09/18 15:45:00;;;;;;;;;;;;;;;;;;5093186;28;19932;-52
2022/09/18 15:47:33;;;;;;;;;;;;;;;;;;5093518;28;19924;-51
2022/09/18 15:50:02;;;;;;;;;;;;;;;;;;5093286;28;19924;-53
2022/09/18 15:52:46;;;;;;;;;;;;;;;;;;5093498;28;19924;-42
2022/09/18 15:55:32;;;;;;;;;;;;;;;;;;5093450;28;20307;-50
2022/09/18 15:58:04;;;;;;;;;;;;;;;;;;5094858;28;19938;-45
2022/09/18 16:00:32;;;;;;;;;;;;;;;;;;5094830;28;19924;-48
2022/09/18 16:03:07;;;;;;;;;;;;;;;;;;5095087;28;19924;-43
2022/09/18 16:05:39;;;;;;;;;;;;;;;;;;5094939;28;19924;-54
2022/09/18 16:08:19;;;;;;;;;;;;;;;;;;5094761;28;20039;-50
2022/09/18 16:10:47;;;;;;;;;;;;;;;;;;5094877;28;20447;-49
2022/09/18 16:13:15;;;;;;;;;;;;;;;;;;5094903;28;20395;-50
2022/09/18 16:15:46;;;;;;;;;;;;;;;;;;5094806;28;19928;-51
2022/09/18 16:18:27;;;;;;;;;;;;;;;;;;5094485;28;20361;-47
2022/09/18 16:20:56;;;;;;;;;;;;;;;;;;5094333;28;19930;-50
2022/09/18 16:23:26;;;;;;;;;;;;;;;;;;5094621;28;19928;-49
2022/09/18 16:26:12;;;;;;;;;;;;;;;;;;5094504;28;19928;-50
2022/09/18 16:28:44;;;;;;;;;;;;;;;;;;5094469;28;19924;-53
2022/09/18 16:31:12;;;;;;;;;;;;;;;;;;5094407;28;19924;-52
2022/09/18 16:33:47;;;;;;;;;;;;;;;;;;5093800;28;19931;-52
2022/09/18 16:36:47;;;;;;;;;;;;;;;;;;5094288;28;20357;-46
2022/09/18 16:39:16;;;;;;;;;;;;;;;;;;5094106;28;19963;-51
2022/09/18 16:41:44;;;;;;;;;;;;;;;;;;5094065;28;19927;-53
2022/09/18 16:44:12;;;;;;;;;;;;;;;;;;5094064;28;19924;-52
2022/09/18 16:46:41;;;;;;;;;;;;;;;;;;5093749;28;20379;-53
2022/09/18 16:49:12;;;;;;;;;;;;;;;;;;5094156;28;19923;-50
2022/09/18 16:51:39;;;;;;;;;;;;;;;;;;5091279;28;19930;-53
2022/09/18 16:54:06;;;;;;;;;;;;;;;;;;5072310;28;20409;-51
2022/09/18 16:56:37;;;;;;;;;;;;;;;;;;5072864;28;19928;-45
2022/09/18 16:59:05;;;;;;;;;;;;;;;;;;5073199;28;20463;-44
2022/09/18 17:01:34;;;;;;;;;;;;;;;;;;5073077;28;19931;-46
2022/09/18 17:04:20;;;;;;;;;;;;;;;;;;5073296;28;20022;-48
2022/09/18 17:06:48;;;;;;;;;;;;;;;;;;5073027;28;19974;-38
2022/09/18 17:09:15;;;;;;;;;;;;;;;;;;5073168;28;19924;-52
2022/09/18 17:11:43;;;;;;;;;;;;;;;;;;5073390;28;19924;-51
2022/09/18 17:14:10;;;;;;;;;;;;;;;;;;5073126;28;19924;-43
2022/09/18 17:16:38;;;;;;;;;;;;;;;;;;5073319;28;19925;-49
2022/09/18 17:19:10;;;;;;;;;;;;;;;;;;5072966;28;19924;-47
2022/09/18 17:21:38;;;;;;;;;;;;;;;;;;5073193;28;19975;-50
2022/09/18 17:24:07;;;;;;;;;;;;;;;;;;5073133;28;19924;-48
2022/09/18 17:26:35;;;;;;;;;;;;;;;;;;5072877;28;20284;-43
2022/09/18 17:29:03;;;;;;;;;;;;;;;;;;5073234;28;19929;-50
2022/09/18 17:31:30;;;;;;;;;;;;;;;;;;5090692;28;19924;-52
2022/09/18 17:33:58;;;;;;;;;;;;;;;;;;5093160;28;20276;-51